Pagrindinis puslapis
METAR-TAF:

METAR-TAF

Oro uostai :

Tarptautinis Vilniaus oro uostas

Vilnius, Lietuva

platuma: 54-38N, ilguma: 025-06E, Aukštis: 162 m

Dabartinis oras

Ataskaita buvo paskelbta 37 minutes, ne 17:20 UTC
Vėjas 7 kt iš Rytų/Šiaurės Rytų
Temperatūra 2°C
Drėgmė 93%
Slėgis 1031 hPa
Matomumas 10 km arba daugiau
Apsiniaukę ne aukštis 700 ft
lietus

METAR: EYVI 191720Z 06007KT 9999 -RA OVC007 02/01 Q1031 R01/2///95 NOSIG

Laikas: 19:57 (17:57 UTC)

Prognozė

Ataskaita buvo paskelbta 57 minutes, ne 17:00 UTC
Prognozė galioja nuo 19 metu 18 UTC su 20 metu 18 UTC
Vėjas 8 kt iš Rytų/Šiaurės Rytų
Matomumas: 5000 m
Su prošvaistėmis ne aukštis 500 ft
Apsiniaukę ne aukštis 1500 ft
rūkana
Laikinai
nuo 19 metu 18 UTC su 19 metu 24 UTC
lietus
Tapsmas
nuo 20 metu 00 UTC su 20 metu 02 UTC
Apsiniaukę ne aukštis 1000 ft
Laikinai
nuo 20 metu 02 UTC su 20 metu 12 UTC
Su prošvaistėmis ne aukštis 500 ft

TAF: EYVI 191700Z 1918/2018 06008KT 5000 BR BKN005 OVC015 TEMPO 1918/1924 -RA BECMG 2000/2002 OVC010 TEMPO 2002/2012 BKN005

Orai ataskaitas ir orų prognozės (METAR, TAF).

turimą stotys yra geltonos ir raudonos taškus žemėlapyje.

Perkelti pele per norėdami pamatyti stoties vardą.

Tada spustelėkite, norėdami matyti oro stebėjimo ir prognozės.

Norėdami pakeisti žemėlapį: spustelėkite ant žalios mygtukų su juodo kryžiaus žemyn,; žalią mygtuką su brūkšneliu, jei norite nutolinti; arba žalių rodyklių gretimoms žemėlapius.


METAR-TAF: